Time;durP1;ratioP1;P1;durP2;ratioP2;P2;SDS_P1;SDS_P2;PMS_P1;PMS_P2;Temp;Humidity;BMP_temperature;BMP_pressure;BME280_temperature;BME280_humidity;BME280_pressure;Samples;Min_cycle;Max_cycle;Signal;HPM_P1;HPM_P2
2022/01/01 00:01:53;;;;;;;62.45;39.88;;;11.40;99.90;;;;;;4982325;28;20101;-77
2022/01/01 00:04:20;;;;;;;58.05;38.15;;;11.40;99.90;;;;;;4966689;28;20117;-77
2022/01/01 00:06:47;;;;;;;60.13;35.50;;;11.40;99.90;;;;;;4979387;28;20112;-78
2022/01/01 00:09:14;;;;;;;63.60;39.45;;;11.40;99.90;;;;;;4988989;23;20137;-76
2022/01/01 00:11:41;;;;;;;59.70;37.28;;;11.40;99.90;;;;;;4962668;28;20039;-75
2022/01/01 00:14:08;;;;;;;61.40;38.28;;;11.40;99.90;;;;;;4978294;28;20072;-74
2022/01/01 00:16:35;;;;;;;60.13;36.90;;;11.40;99.90;;;;;;4987432;28;20105;-75
2022/01/01 00:19:02;;;;;;;58.65;36.38;;;11.40;99.90;;;;;;4959478;28;20054;-74
2022/01/01 00:21:29;;;;;;;54.50;33.65;;;11.40;99.90;;;;;;4938980;28;20146;-75
2022/01/01 00:23:56;;;;;;;54.33;33.65;;;11.40;99.90;;;;;;4951898;28;20043;-73
2022/01/01 00:26:23;;;;;;;59.47;35.50;;;11.40;99.90;;;;;;4956555;28;20109;-75
2022/01/01 00:28:50;;;;;;;52.63;34.17;;;11.40;99.90;;;;;;4956442;28;20042;-74
2022/01/01 00:31:18;;;;;;;54.88;34.85;;;11.40;99.90;;;;;;4958123;28;20047;-75
2022/01/01 00:33:44;;;;;;;57.65;35.78;;;11.40;99.90;;;;;;4962590;28;20038;-76
2022/01/01 00:36:11;;;;;;;51.88;34.65;;;11.50;99.90;;;;;;4965266;28;20053;-74
2022/01/01 00:38:38;;;;;;;52.35;33.42;;;11.50;99.90;;;;;;4940215;28;20757;-73
2022/01/01 00:41:05;;;;;;;52.83;35.55;;;11.40;99.90;;;;;;4950423;28;20425;-73
2022/01/01 00:43:32;;;;;;;58.08;33.42;;;11.50;99.90;;;;;;4971014;28;20610;-74
2022/01/01 00:45:59;;;;;;;58.00;36.17;;;11.50;99.90;;;;;;4960057;28;20762;-74
2022/01/01 00:48:25;;;;;;;47.47;32.95;;;11.50;99.90;;;;;;4956688;28;20389;-73
2022/01/01 00:50:52;;;;;;;57.28;35.85;;;11.50;99.90;;;;;;4955181;28;20058;-74
2022/01/01 00:53:19;;;;;;;57.38;35.72;;;11.50;99.90;;;;;;4958563;28;20070;-72
2022/01/01 00:55:46;;;;;;;52.85;34.55;;;11.50;99.90;;;;;;4977330;28;20050;-74
2022/01/01 00:58:12;;;;;;;53.03;36.22;;;11.50;99.90;;;;;;4976983;28;20105;-74
2022/01/01 01:00:39;;;;;;;55.90;34.40;;;11.50;99.90;;;;;;4962175;28;20861;-72
2022/01/01 01:03:10;;;;;;;46.30;29.58;;;11.50;99.90;;;;;;4948623;28;20070;-73
2022/01/01 01:05:39;;;;;;;51.70;33.63;;;11.40;99.90;;;;;;4956591;28;20782;-73
2022/01/01 01:08:07;;;;;;;53.75;35.28;;;11.50;99.90;;;;;;4958312;28;20059;-74
2022/01/01 01:10:35;;;;;;;56.38;35.45;;;11.50;99.90;;;;;;4964051;28;20054;-72
2022/01/01 01:13:03;;;;;;;54.28;33.80;;;11.50;99.90;;;;;;4977432;28;20085;-74
2022/01/01 01:15:32;;;;;;;52.50;33.05;;;11.50;99.90;;;;;;4958734;28;20354;-73
2022/01/01 01:17:59;;;;;;;55.92;33.47;;;11.50;99.90;;;;;;4955250;28;20101;-74
2022/01/01 01:20:27;;;;;;;52.45;34.00;;;11.50;99.90;;;;;;4956700;28;20062;-74
2022/01/01 01:22:58;;;;;;;55.75;32.42;;;11.40;99.90;;;;;;4954998;28;20059;-74
2022/01/01 01:25:29;;;;;;;49.17;30.77;;;11.50;99.90;;;;;;4960563;28;20105;-73
2022/01/01 01:28:05;;;;;;;48.55;31.08;;;11.50;99.90;;;;;;4977774;28;20043;-74
2022/01/01 01:30:32;;;;;;;49.72;33.05;;;11.50;99.90;;;;;;4957366;28;20537;-72
2022/01/01 01:32:59;;;;;;;52.80;33.20;;;11.50;99.90;;;;;;4958068;28;20053;-73
2022/01/01 01:35:26;;;;;;;53.03;32.95;;;11.50;99.90;;;;;;4954709;28;20074;-73
2022/01/01 01:37:52;;;;;;;51.88;32.85;;;11.50;99.90;;;;;;4973818;28;20124;-73
2022/01/01 01:40:19;;;;;;;66.35;42.90;;;11.50;99.90;;;;;;4958963;28;20050;-73
2022/01/01 01:42:46;;;;;;;50.55;32.50;;;11.50;99.90;;;;;;4993204;28;20054;-72
2022/01/01 01:45:17;;;;;;;59.65;34.65;;;11.50;99.90;;;;;;4962727;28;20070;-75
2022/01/01 01:47:46;;;;;;;62.25;34.53;;;11.50;99.90;;;;;;4960223;28;20039;-73
2022/01/01 01:50:16;;;;;;;59.50;34.85;;;11.60;99.90;;;;;;4958357;28;20035;-74
2022/01/01 01:52:56;;;;;;;59.28;34.08;;;11.60;99.90;;;;;;4977020;28;20050;-73
2022/01/01 01:55:23;;;;;;;52.80;32.90;;;11.50;99.90;;;;;;4966803;28;20273;-73
2022/01/01 01:57:50;;;;;;;53.58;32.60;;;11.50;99.90;;;;;;4965766;28;20448;-73
2022/01/01 02:03:09;;;;;;;53.72;32.70;;;11.50;99.90;;;;;;4956148;28;20208;-72
2022/01/01 02:05:38;;;;;;;55.35;33.58;;;11.50;99.90;;;;;;4954510;28;20073;-72
2022/01/01 02:08:06;;;;;;;56.65;34.42;;;11.50;99.90;;;;;;4956162;28;20054;-73
2022/01/01 02:10:34;;;;;;;54.47;31.23;;;11.50;99.90;;;;;;4957716;28;20072;-73
2022/01/01 02:13:10;;;;;;;60.55;34.95;;;11.50;99.90;;;;;;4957572;28;20058;-73
2022/01/01 02:15:48;;;;;;;56.15;34.03;;;11.50;99.90;;;;;;4960402;28;20078;-73
2022/01/01 02:18:15;;;;;;;55.78;33.83;;;11.50;99.90;;;;;;4952755;28;20070;-74
2022/01/01 02:20:49;;;;;;;57.15;32.05;;;11.50;99.90;;;;;;4955292;28;20113;-73
2022/01/01 02:23:26;;;;;;;55.30;33.35;;;11.50;99.90;;;;;;4957231;28;20055;-73
2022/01/01 02:25:56;;;;;;;51.28;32.03;;;11.50;99.90;;;;;;4956010;28;20051;-73
2022/01/01 02:28:23;;;;;;;55.17;32.58;;;11.50;99.90;;;;;;4938740;28;20212;-73
2022/01/01 02:30:50;;;;;;;52.40;32.30;;;11.50;99.90;;;;;;4945813;28;20050;-73
2022/01/01 02:33:17;;;;;;;55.97;31.48;;;11.50;99.90;;;;;;4958998;28;20042;-72
2022/01/01 02:35:44;;;;;;;54.22;29.83;;;11.50;99.90;;;;;;4957828;28;20055;-74
2022/01/01 02:38:12;;;;;;;52.95;31.20;;;11.50;99.90;;;;;;4957012;28;20058;-73
2022/01/01 02:40:39;;;;;;;50.78;30.85;;;11.50;99.90;;;;;;4971860;28;20053;-75
2022/01/01 02:43:06;;;;;;;53.20;30.05;;;11.50;99.90;;;;;;4948925;28;20127;-72
2022/01/01 02:45:33;;;;;;;52.38;29.00;;;11.50;99.90;;;;;;4953882;28;20077;-72
2022/01/01 02:48:00;;;;;;;51.75;30.90;;;11.50;99.90;;;;;;4957251;28;20058;-72
2022/01/01 02:50:27;;;;;;;53.80;31.80;;;11.50;99.90;;;;;;4957575;28;20512;-73
2022/01/01 02:52:53;;;;;;;49.05;29.05;;;11.50;99.90;;;;;;4957977;28;20289;-72
2022/01/01 02:55:20;;;;;;;48.70;29.63;;;11.50;99.90;;;;;;4954853;28;20129;-74
2022/01/01 02:57:47;;;;;;;52.97;29.38;;;11.50;99.90;;;;;;4946444;28;20458;-73
2022/01/01 03:00:14;;;;;;;51.72;29.02;;;11.50;99.90;;;;;;4951969;28;20109;-73
2022/01/01 03:02:41;;;;;;;51.60;28.90;;;11.50;99.90;;;;;;4963501;28;20449;-71
2022/01/01 03:05:08;;;;;;;53.65;30.88;;;11.40;99.90;;;;;;4958100;28;20420;-73
2022/01/01 03:07:36;;;;;;;53.55;30.50;;;11.50;99.90;;;;;;4955211;28;20675;-73
2022/01/01 03:10:04;;;;;;;54.13;28.77;;;11.40;99.90;;;;;;4955294;28;20121;-73
2022/01/01 03:12:31;;;;;;;58.97;30.60;;;11.40;99.90;;;;;;4956760;28;20212;-74
2022/01/01 03:14:57;;;;;;;61.28;29.45;;;11.50;99.90;;;;;;4975668;28;20057;-73
2022/01/01 03:17:24;;;;;;;51.10;29.25;;;11.50;99.90;;;;;;4953552;28;20071;-73
2022/01/01 03:19:51;;;;;;;52.70;28.48;;;11.40;99.90;;;;;;4937468;28;20043;-74
2022/01/01 03:22:18;;;;;;;49.85;27.48;;;11.40;99.90;;;;;;4936246;28;20174;-72
2022/01/01 03:24:44;;;;;;;56.90;28.27;;;11.40;99.90;;;;;;4956782;28;20051;-74
2022/01/01 03:27:11;;;;;;;52.28;27.70;;;11.40;99.90;;;;;;4955319;28;20047;-73
2022/01/01 03:29:38;;;;;;;52.40;28.60;;;11.40;99.90;;;;;;4955164;28;20055;-72
2022/01/01 03:32:05;;;;;;;59.72;27.70;;;11.40;99.90;;;;;;4952148;28;20417;-74
2022/01/01 03:34:32;;;;;;;50.47;29.30;;;11.40;99.90;;;;;;4953438;28;20127;-73
2022/01/01 03:36:59;;;;;;;57.00;27.77;;;11.40;99.90;;;;;;4952505;28;20226;-73
2022/01/01 03:39:27;;;;;;;47.63;25.75;;;11.40;99.90;;;;;;4956481;28;20203;-73
2022/01/01 03:41:54;;;;;;;51.63;28.33;;;11.40;99.90;;;;;;4969843;28;20050;-73
2022/01/01 03:44:21;;;;;;;48.17;26.35;;;11.40;99.90;;;;;;4974004;28;20118;-73
2022/01/01 03:46:48;;;;;;;50.08;27.63;;;11.40;99.90;;;;;;4955740;28;20070;-73
2022/01/01 03:49:16;;;;;;;53.67;27.52;;;11.40;99.90;;;;;;4954615;28;20267;-73
2022/01/01 03:51:42;;;;;;;47.10;26.63;;;11.40;99.90;;;;;;4966843;28;20065;-73
2022/01/01 03:54:11;;;;;;;44.85;25.10;;;11.40;99.90;;;;;;4972042;28;20070;-72
2022/01/01 03:56:38;;;;;;;52.80;25.58;;;11.40;99.90;;;;;;4974229;28;20086;-73
2022/01/01 03:59:06;;;;;;;57.75;28.20;;;11.40;99.90;;;;;;4974613;28;20092;-73
2022/01/01 04:01:33;;;;;;;54.78;25.98;;;11.40;99.90;;;;;;4962811;28;20066;-74
2022/01/01 04:04:00;;;;;;;56.08;26.40;;;11.40;99.90;;;;;;4965285;28;20449;-73
2022/01/01 04:06:27;;;;;;;55.60;26.02;;;11.40;99.90;;;;;;4968373;28;20047;-73
2022/01/01 04:08:53;;;;;;;54.83;26.27;;;11.40;99.90;;;;;;4975834;28;20666;-73
2022/01/01 04:11:21;;;;;;;51.28;25.08;;;11.40;99.90;;;;;;4978321;28;20118;-73
2022/01/01 04:13:49;;;;;;;54.05;26.08;;;11.40;99.90;;;;;;4963965;28;20050;-73
2022/01/01 04:16:17;;;;;;;46.58;23.92;;;11.40;99.90;;;;;;4958461;28;20115;-73
2022/01/01 04:18:45;;;;;;;51.22;25.25;;;11.40;99.90;;;;;;4965597;28;20584;-72
2022/01/01 04:21:13;;;;;;;46.85;23.10;;;11.40;99.90;;;;;;4958178;28;20309;-72
2022/01/01 04:23:41;;;;;;;46.60;23.20;;;11.40;99.90;;;;;;4958553;28;20074;-74
2022/01/01 04:26:08;;;;;;;51.45;25.10;;;11.40;99.90;;;;;;4940100;28;20053;-73
2022/01/01 04:28:35;;;;;;;50.35;24.38;;;11.40;99.90;;;;;;4962811;28;20027;-72
2022/01/01 04:31:03;;;;;;;58.28;23.95;;;11.40;99.90;;;;;;4963060;28;20046;-73
2022/01/01 04:33:30;;;;;;;50.60;22.95;;;11.40;99.90;;;;;;4978172;28;20050;-72
2022/01/01 04:35:57;;;;;;;49.65;23.65;;;11.40;99.90;;;;;;4970743;28;20616;-74
2022/01/01 04:38:38;;;;;;;41.95;22.63;;;11.40;99.90;;;;;;4969132;28;20112;-72
2022/01/01 04:41:11;;;;;;;45.15;22.63;;;11.40;99.90;;;;;;4970275;28;20434;-73
2022/01/01 04:43:45;;;;;;;45.28;21.67;;;11.50;99.90;;;;;;4959543;28;20308;-74
2022/01/01 04:46:12;;;;;;;53.20;22.63;;;11.40;99.90;;;;;;4957226;28;20081;-74
2022/01/01 04:48:40;;;;;;;41.90;20.05;;;11.40;99.90;;;;;;4957653;28;20340;-73
2022/01/01 04:51:08;;;;;;;51.35;21.35;;;11.40;99.90;;;;;;4964617;28;20138;-73
2022/01/01 04:53:35;;;;;;;43.60;18.83;;;11.40;99.90;;;;;;4976394;28;20383;-72
2022/01/01 04:56:06;;;;;;;34.97;19.70;;;11.50;99.90;;;;;;4992402;28;20057;-71
2022/01/01 04:58:34;;;;;;;36.28;18.13;;;11.40;99.90;;;;;;4972446;28;20047;-73
2022/01/01 05:01:01;;;;;;;37.78;17.40;;;11.40;99.90;;;;;;4956300;28;20718;-72
2022/01/01 05:03:28;;;;;;;46.08;18.15;;;11.50;99.90;;;;;;4958846;28;20066;-72
2022/01/01 05:05:55;;;;;;;40.30;18.13;;;11.50;99.90;;;;;;4952235;28;20289;-73
2022/01/01 05:08:21;;;;;;;35.70;18.25;;;11.50;99.90;;;;;;4974599;28;20149;-73
2022/01/01 05:10:48;;;;;;;39.17;16.48;;;11.50;99.90;;;;;;4954811;28;20055;-73
2022/01/01 05:13:16;;;;;;;37.50;17.05;;;11.50;99.90;;;;;;4960488;28;20058;-73
2022/01/01 05:15:43;;;;;;;37.78;15.73;;;11.50;99.90;;;;;;4967480;28;20082;-73
2022/01/01 05:18:10;;;;;;;30.67;15.10;;;11.40;99.90;;;;;;4954080;28;20065;-73
2022/01/01 05:20:37;;;;;;;30.25;16.00;;;11.50;99.90;;;;;;4968795;28;20144;-74
2022/01/01 05:23:03;;;;;;;36.83;14.93;;;11.50;99.90;;;;;;4960332;28;20371;-73
2022/01/01 05:25:30;;;;;;;35.05;15.38;;;11.40;99.90;;;;;;4977291;28;20046;-73
2022/01/01 05:27:57;;;;;;;37.47;15.63;;;11.40;99.90;;;;;;4973861;28;20050;-73
2022/01/01 05:30:24;;;;;;;29.70;13.50;;;11.40;99.90;;;;;;4971416;28;20406;-73
2022/01/01 05:32:51;;;;;;;34.78;13.25;;;11.40;99.90;;;;;;4952514;28;20058;-72
2022/01/01 05:35:17;;;;;;;34.30;13.40;;;11.40;99.90;;;;;;4958194;28;20580;-74
2022/01/01 05:37:44;;;;;;;32.05;12.80;;;11.40;99.90;;;;;;4957072;28;20046;-74
2022/01/01 05:40:15;;;;;;;31.83;12.27;;;11.40;99.90;;;;;;4957186;28;20047;-72
2022/01/01 05:42:41;;;;;;;26.60;13.38;;;11.40;99.90;;;;;;4957005;28;20388;-73
2022/01/01 05:45:09;;;;;;;26.13;13.02;;;11.40;99.90;;;;;;4956125;28;20709;-73
2022/01/01 05:47:36;;;;;;;31.25;13.93;;;11.40;99.90;;;;;;4969820;28;20097;-73
2022/01/01 05:50:04;;;;;;;27.92;12.07;;;11.40;99.90;;;;;;4957382;28;20270;-73
2022/01/01 05:52:31;;;;;;;26.58;12.60;;;11.40;99.90;;;;;;4976087;28;20150;-72
2022/01/01 05:54:58;;;;;;;33.70;13.30;;;11.30;99.90;;;;;;4942398;28;20054;-73
2022/01/01 05:57:25;;;;;;;32.92;12.80;;;11.30;99.90;;;;;;4957747;28;20046;-73
2022/01/01 05:59:51;;;;;;;31.20;12.20;;;11.30;99.90;;;;;;4956101;28;20084;-73
2022/01/01 06:02:18;;;;;;;27.88;13.57;;;11.30;99.90;;;;;;4958574;28;20042;-73
2022/01/01 06:04:45;;;;;;;24.45;12.57;;;11.30;99.90;;;;;;4974483;28;20085;-72
2022/01/01 06:07:12;;;;;;;32.53;12.88;;;11.30;99.90;;;;;;4965710;28;20046;-73
2022/01/01 06:09:39;;;;;;;27.55;13.35;;;11.30;99.90;;;;;;4955267;28;20051;-72
2022/01/01 06:12:06;;;;;;;28.63;13.30;;;11.30;99.90;;;;;;4954909;28;20094;-72
2022/01/01 06:14:33;;;;;;;28.00;13.80;;;11.20;99.90;;;;;;4958706;28;20596;-72
2022/01/01 06:16:59;;;;;;;31.80;13.18;;;11.20;99.90;;;;;;4955539;28;20460;-73
2022/01/01 06:19:26;;;;;;;29.35;11.80;;;11.20;99.90;;;;;;4953935;28;20112;-73
2022/01/01 06:21:53;;;;;;;30.40;12.73;;;11.20;99.90;;;;;;4956829;28;20047;-73
2022/01/01 06:24:23;;;;;;;28.67;12.13;;;11.20;99.90;;;;;;4953524;28;20051;-73
2022/01/01 06:26:50;;;;;;;27.50;11.32;;;11.20;99.90;;;;;;4955288;28;20122;-72
2022/01/01 06:29:17;;;;;;;31.70;13.18;;;11.20;99.90;;;;;;4953074;28;20270;-73
2022/01/01 06:31:44;;;;;;;27.17;11.75;;;11.20;99.90;;;;;;4955191;28;20331;-72
2022/01/01 06:34:11;;;;;;;28.48;11.10;;;11.30;99.90;;;;;;4963019;28;20444;-72
2022/01/01 06:36:37;;;;;;;30.35;12.85;;;11.30;99.90;;;;;;4954424;28;20070;-72
2022/01/01 06:39:04;;;;;;;34.45;13.40;;;11.30;99.90;;;;;;4975314;28;20449;-73
2022/01/01 06:41:31;;;;;;;30.33;13.18;;;11.30;99.90;;;;;;4975065;28;20062;-73
2022/01/01 06:43:58;;;;;;;31.98;12.88;;;11.30;99.90;;;;;;4971627;28;20396;-73
2022/01/01 06:46:25;;;;;;;27.30;12.60;;;11.30;99.90;;;;;;4953188;28;20047;-74
2022/01/01 06:48:52;;;;;;;32.92;12.82;;;11.30;99.90;;;;;;4954662;28;20109;-72
2022/01/01 06:51:19;;;;;;;37.38;13.68;;;11.30;99.90;;;;;;4955689;28;20079;-72
2022/01/01 06:53:45;;;;;;;25.15;12.45;;;11.30;99.90;;;;;;4956693;28;20555;-73
2022/01/01 06:56:12;;;;;;;27.13;11.95;;;11.30;99.90;;;;;;4951282;28;20492;-73
2022/01/01 06:58:39;;;;;;;27.63;12.05;;;11.40;99.90;;;;;;4973686;28;20042;-73
2022/01/01 07:01:06;;;;;;;29.92;13.57;;;11.30;99.90;;;;;;4974271;28;20133;-73
2022/01/01 07:03:33;;;;;;;26.58;12.20;;;11.30;99.90;;;;;;4976065;28;20054;-72
2022/01/01 07:06:00;;;;;;;25.08;12.27;;;11.40;99.90;;;;;;4971218;28;20054;-73
2022/01/01 07:08:27;;;;;;;39.63;13.70;;;11.40;99.90;;;;;;4961755;28;20478;-73
2022/01/01 07:10:54;;;;;;;31.45;12.38;;;11.40;99.90;;;;;;4965299;28;20046;-72
2022/01/01 07:13:21;;;;;;;31.20;13.65;;;11.30;99.90;;;;;;4966407;28;20054;-73
2022/01/01 07:15:48;;;;;;;27.48;12.57;;;11.40;99.90;;;;;;4937452;28;20051;-74
2022/01/01 07:18:14;;;;;;;33.20;14.77;;;11.30;99.90;;;;;;4951539;28;20059;-73
2022/01/01 07:20:42;;;;;;;37.05;17.10;;;11.30;99.90;;;;;;4958054;28;20377;-74
2022/01/01 07:23:10;;;;;;;35.22;16.23;;;11.30;99.90;;;;;;4955784;28;20054;-73
2022/01/01 07:25:36;;;;;;;40.88;18.23;;;11.30;99.90;;;;;;4955832;28;20046;-72
2022/01/01 07:28:03;;;;;;;31.70;14.18;;;11.30;99.90;;;;;;4974601;28;20061;-73
2022/01/01 07:30:30;;;;;;;24.48;11.30;;;11.30;99.90;;;;;;4972720;28;20707;-72
2022/01/01 07:32:57;;;;;;;27.42;11.45;;;11.30;99.90;;;;;;4973668;28;20109;-73
2022/01/01 07:35:23;;;;;;;33.20;13.75;;;11.30;99.90;;;;;;4972929;28;20063;-73
2022/01/01 07:37:52;;;;;;;31.75;11.75;;;11.30;99.90;;;;;;4977203;28;20069;-74
2022/01/01 07:40:20;;;;;;;26.25;11.25;;;11.40;99.90;;;;;;4978891;28;20070;-73
2022/01/01 07:42:47;;;;;;;30.42;12.60;;;11.30;99.90;;;;;;4961153;28;20058;-73
2022/01/01 07:45:15;;;;;;;28.05;11.70;;;11.30;99.90;;;;;;4955629;28;20491;-74
2022/01/01 07:47:42;;;;;;;26.42;10.75;;;11.30;99.90;;;;;;4960139;28;20114;-73
2022/01/01 07:50:10;;;;;;;25.55;10.32;;;11.30;99.90;;;;;;4960674;28;20078;-72
2022/01/01 07:52:39;;;;;;;26.42;10.98;;;11.30;99.90;;;;;;4959376;28;20054;-73
2022/01/01 07:55:06;;;;;;;29.95;13.13;;;11.30;99.90;;;;;;4972639;28;20081;-73
2022/01/01 07:57:34;;;;;;;30.23;12.38;;;11.30;99.90;;;;;;4961797;28;20508;-72
2022/01/01 08:00:01;;;;;;;23.00;10.10;;;11.40;99.90;;;;;;4973722;28;20054;-72
2022/01/01 08:02:30;;;;;;;27.52;10.77;;;11.40;99.90;;;;;;4959102;28;20097;-73
2022/01/01 08:04:57;;;;;;;25.23;11.07;;;11.30;99.90;;;;;;4969649;28;20070;-72
2022/01/01 08:07:24;;;;;;;22.77;11.43;;;11.40;99.90;;;;;;4970753;28;20812;-72
2022/01/01 08:10:11;;;;;;;31.10;10.35;;;11.40;99.90;;;;;;4953214;28;20047;-73
2022/01/01 08:12:40;;;;;;;27.83;10.00;;;11.40;99.90;;;;;;4960697;28;20043;-73
2022/01/01 08:15:08;;;;;;;22.77;10.23;;;11.50;99.90;;;;;;4954215;28;20586;-74
2022/01/01 08:17:35;;;;;;;25.63;10.77;;;11.50;99.90;;;;;;4961504;28;20386;-73
2022/01/01 08:20:03;;;;;;;24.88;10.32;;;11.50;99.90;;;;;;4956576;28;20050;-72
2022/01/01 08:22:30;;;;;;;20.63;9.65;;;11.50;99.90;;;;;;4968996;28;20043;-72
2022/01/01 08:24:57;;;;;;;24.35;10.43;;;11.50;99.90;;;;;;4979149;28;20038;-73
2022/01/01 08:27:23;;;;;;;21.00;9.57;;;11.50;99.90;;;;;;4975862;28;20073;-72
2022/01/01 08:29:50;;;;;;;20.40;9.23;;;11.50;99.90;;;;;;4967166;28;20058;-73
2022/01/01 08:32:17;;;;;;;21.35;9.32;;;11.50;99.90;;;;;;4967464;28;20050;-73
2022/01/01 08:34:44;;;;;;;19.45;8.90;;;11.60;99.90;;;;;;4960685;28;20308;-73
2022/01/01 08:37:10;;;;;;;28.65;10.48;;;11.60;99.90;;;;;;4975879;28;20047;-73
2022/01/01 08:39:37;;;;;;;23.83;9.27;;;11.60;99.90;;;;;;4959399;28;20059;-73
2022/01/01 08:42:05;;;;;;;25.23;9.75;;;11.60;99.90;;;;;;4968070;28;20058;-71
2022/01/01 08:44:32;;;;;;;19.73;8.68;;;11.60;99.90;;;;;;4978853;28;20038;-72
2022/01/01 08:46:59;;;;;;;16.13;7.97;;;11.60;99.90;;;;;;4960766;28;20066;-72
2022/01/01 08:49:26;;;;;;;18.60;7.55;;;11.60;99.90;;;;;;4942272;28;20042;-70
2022/01/01 08:51:55;;;;;;;17.63;8.35;;;11.60;99.90;;;;;;4964976;28;20316;-72
2022/01/01 08:54:22;;;;;;;22.00;8.82;;;11.70;99.90;;;;;;4956470;28;20066;-74
2022/01/01 08:56:49;;;;;;;18.92;8.55;;;11.70;99.90;;;;;;4939211;28;20158;-72
2022/01/01 08:59:16;;;;;;;19.38;8.15;;;11.70;99.90;;;;;;4958708;28;20370;-72
2022/01/01 09:01:43;;;;;;;24.98;10.10;;;11.80;99.90;;;;;;4964081;28;20042;-72
2022/01/01 09:04:10;;;;;;;28.83;9.88;;;11.80;99.90;;;;;;4978235;28;20108;-73
2022/01/01 09:06:37;;;;;;;17.55;6.40;;;11.80;99.90;;;;;;4960105;28;20042;-72
2022/01/01 09:09:04;;;;;;;22.50;8.07;;;11.80;99.90;;;;;;4941258;28;20062;-73
2022/01/01 09:11:30;;;;;;;24.25;8.10;;;11.80;99.90;;;;;;4961552;28;20872;-72
2022/01/01 09:13:57;;;;;;;22.58;6.78;;;11.90;99.90;;;;;;4941732;28;20413;-73
2022/01/01 09:16:29;;;;;;;18.15;7.82;;;11.90;99.90;;;;;;4959263;28;20102;-73
2022/01/01 09:18:56;;;;;;;20.45;7.20;;;11.90;99.90;;;;;;4956195;28;20051;-72
2022/01/01 09:21:24;;;;;;;18.83;7.20;;;11.90;99.90;;;;;;4957011;28;20047;-72
2022/01/01 09:23:51;;;;;;;19.48;7.05;;;11.90;99.90;;;;;;4957926;28;20126;-72
2022/01/01 09:26:19;;;;;;;21.45;8.07;;;12.00;99.90;;;;;;4957380;28;20420;-71
2022/01/01 09:28:46;;;;;;;16.10;6.95;;;12.00;99.90;;;;;;4946160;28;20593;-72
2022/01/01 09:31:13;;;;;;;22.33;9.45;;;12.10;99.90;;;;;;4973315;28;20361;-72
2022/01/01 09:33:40;;;;;;;14.73;8.00;;;12.10;99.90;;;;;;4975499;28;20050;-71
2022/01/01 09:36:07;;;;;;;20.42;7.70;;;12.10;99.90;;;;;;4974191;28;20050;-72
2022/01/01 09:38:34;;;;;;;21.55;8.30;;;12.10;99.90;;;;;;4973379;28;20760;-73
2022/01/01 09:41:02;;;;;;;18.75;8.25;;;12.10;99.90;;;;;;4970857;28;20116;-73
2022/01/01 09:43:31;;;;;;;16.35;6.43;;;12.20;99.90;;;;;;4958045;28;20138;-72
2022/01/01 09:45:59;;;;;;;19.60;7.43;;;12.20;99.90;;;;;;4965671;28;20119;-73
2022/01/01 09:48:27;;;;;;;18.33;6.35;;;12.20;99.90;;;;;;4954823;28;20093;-73
2022/01/01 09:50:59;;;;;;;18.98;6.70;;;12.20;99.90;;;;;;4957677;28;20448;-73
2022/01/01 09:53:27;;;;;;;17.35;7.97;;;12.30;99.90;;;;;;4971574;28;20051;-72
2022/01/01 09:55:55;;;;;;;16.00;5.97;;;12.30;99.90;;;;;;4939275;28;20108;-73
2022/01/01 09:58:24;;;;;;;18.52;7.03;;;12.30;99.90;;;;;;4933530;28;20051;-72
2022/01/01 10:00:52;;;;;;;19.02;6.75;;;12.30;99.90;;;;;;4956870;28;20125;-72
2022/01/01 10:03:28;;;;;;;14.38;6.68;;;12.30;99.90;;;;;;4966439;28;20062;-71
2022/01/01 10:06:09;;;;;;;14.73;7.30;;;12.30;99.90;;;;;;4965838;28;20065;-72
2022/01/01 10:08:37;;;;;;;16.42;5.70;;;12.30;99.90;;;;;;4954801;28;20363;-72
2022/01/01 10:11:05;;;;;;;16.88;6.75;;;12.20;99.90;;;;;;4957171;28;20051;-73
2022/01/01 10:13:34;;;;;;;13.65;6.45;;;12.30;99.90;;;;;;4952100;28;20063;-72
2022/01/01 10:16:04;;;;;;;12.55;6.90;;;12.30;99.90;;;;;;4953272;28;20050;-71
2022/01/01 10:18:53;;;;;;;14.68;6.30;;;12.30;99.90;;;;;;4958726;28;20497;-72
2022/01/01 10:21:27;;;;;;;13.13;5.88;;;12.40;99.90;;;;;;4959307;28;20576;-71
2022/01/01 10:23:56;;;;;;;16.20;5.15;;;12.40;99.90;;;;;;4973904;28;20293;-72
2022/01/01 10:29:17;;;;;;;15.60;5.35;;;12.40;99.90;;;;;;4955441;28;20054;-71
2022/01/01 10:32:16;;;;;;;12.00;5.07;;;12.40;99.90;;;;;;4954483;28;20510;-73
2022/01/01 10:34:46;;;;;;;12.07;4.57;;;12.50;99.90;;;;;;4928974;28;20125;-72
2022/01/01 10:37:32;;;;;;;9.45;4.68;;;12.60;99.90;;;;;;4955525;28;20569;-72
2022/01/01 10:39:59;;;;;;;16.83;8.02;;;12.60;99.90;;;;;;4953735;28;20050;-72
2022/01/01 10:42:27;;;;;;;23.33;10.18;;;12.60;99.90;;;;;;4952432;28;20138;-71
2022/01/01 10:44:54;;;;;;;20.20;8.18;;;12.60;99.90;;;;;;4946417;28;20046;-72
2022/01/01 10:47:29;;;;;;;12.95;6.78;;;12.70;99.90;;;;;;4953724;28;20050;-72
2022/01/01 10:50:15;;;;;;;13.95;5.47;;;12.70;99.90;;;;;;4962691;28;20200;-71
2022/01/01 10:52:45;;;;;;;31.45;19.95;;;12.80;99.90;;;;;;4953496;28;20063;-73
2022/01/01 10:55:14;;;;;;;15.07;8.43;;;12.80;99.90;;;;;;4934520;28;20249;-72
2022/01/01 10:57:57;;;;;;;20.58;12.18;;;12.90;99.90;;;;;;4956914;28;20050;-72
2022/01/01 11:00:26;;;;;;;71.20;33.83;;;13.00;99.90;;;;;;4961798;28;20141;-72
2022/01/01 11:02:56;;;;;;;9.57;5.78;;;13.10;99.90;;;;;;4974657;28;20046;-71
2022/01/01 11:05:40;;;;;;;25.05;11.43;;;13.20;99.90;;;;;;4964922;28;20579;-72
2022/01/01 11:08:10;;;;;;;12.27;7.38;;;13.20;99.90;;;;;;4951937;28;20054;-72
2022/01/01 11:10:38;;;;;;;16.30;5.90;;;13.20;99.90;;;;;;4954863;28;20055;-72
2022/01/01 11:13:06;;;;;;;19.83;12.18;;;13.30;99.90;;;;;;4954627;28;20540;-71
2022/01/01 11:15:34;;;;;;;13.57;6.45;;;13.30;99.90;;;;;;4954956;28;20046;-72
2022/01/01 11:18:05;;;;;;;14.52;6.78;;;13.30;99.90;;;;;;4954995;28;20623;-71
2022/01/01 11:20:34;;;;;;;13.60;7.63;;;13.50;99.90;;;;;;4953729;28;20046;-72
2022/01/01 11:23:09;;;;;;;9.10;5.63;;;13.50;99.90;;;;;;4956089;28;20062;-71
2022/01/01 11:25:38;;;;;;;9.38;5.40;;;13.40;99.90;;;;;;4954197;28;20770;-73
2022/01/01 11:28:08;;;;;;;9.48;5.82;;;13.50;99.90;;;;;;4967959;28;20043;-73
2022/01/01 11:30:38;;;;;;;12.52;7.20;;;13.40;99.90;;;;;;4955144;28;20100;-72
2022/01/01 11:33:11;;;;;;;16.27;7.53;;;13.40;99.90;;;;;;4955909;28;20055;-71
2022/01/01 11:35:43;;;;;;;12.45;5.32;;;13.50;99.90;;;;;;4972306;28;20047;-70
2022/01/01 11:38:10;;;;;;;15.20;7.03;;;13.30;99.90;;;;;;4973767;28;20047;-73
2022/01/01 11:41:00;;;;;;;12.13;4.78;;;13.40;99.90;;;;;;4974295;28;20591;-72
2022/01/01 11:43:46;;;;;;;11.55;5.57;;;13.30;99.90;;;;;;4973755;28;20168;-72
2022/01/01 11:46:17;;;;;;;11.80;6.32;;;13.30;99.90;;;;;;4952454;28;20661;-72
2022/01/01 11:49:03;;;;;;;12.70;6.18;;;13.30;99.90;;;;;;4948329;28;20580;-72
2022/01/01 11:51:52;;;;;;;8.13;5.10;;;13.30;99.90;;;;;;4949133;28;20043;-74
2022/01/01 11:54:31;;;;;;;13.80;5.45;;;13.30;99.90;;;;;;4953831;28;20137;-74
2022/01/01 11:57:05;;;;;;;14.23;5.65;;;13.20;99.90;;;;;;4954289;28;20126;-74
2022/01/01 11:59:46;;;;;;;8.13;4.93;;;13.20;99.90;;;;;;4952123;28;20114;-73
2022/01/01 12:02:18;;;;;;;12.90;6.05;;;13.30;99.90;;;;;;4954563;28;20054;-75
2022/01/01 12:04:55;;;;;;;13.75;5.55;;;13.30;99.90;;;;;;4966105;28;20262;-74
2022/01/01 12:07:24;;;;;;;10.52;5.35;;;13.30;99.90;;;;;;4935353;28;20067;-72
2022/01/01 12:10:04;;;;;;;13.88;6.53;;;13.30;99.90;;;;;;4982421;23;20134;-75
2022/01/01 12:12:54;;;;;;;14.30;5.50;;;13.40;99.90;;;;;;4996184;28;20243;-74
2022/01/01 12:15:23;;;;;;;15.02;6.20;;;13.40;99.90;;;;;;4980439;28;20572;-77
2022/01/01 12:17:56;;;;;;;9.75;5.63;;;13.40;99.90;;;;;;4978984;28;20177;-76
2022/01/01 12:20:47;;;;;;;13.40;6.38;;;13.50;99.90;;;;;;4975464;28;20531;-75
2022/01/01 12:23:18;;;;;;;13.63;5.95;;;13.40;99.90;;;;;;4978700;28;20058;-76
2022/01/01 12:25:47;;;;;;;13.32;7.18;;;13.50;99.90;;;;;;4963499;28;20551;-76
2022/01/01 12:28:21;;;;;;;18.38;7.68;;;13.50;99.90;;;;;;4979799;28;20054;-76
2022/01/01 12:30:51;;;;;;;11.82;7.03;;;13.50;99.90;;;;;;4980112;28;20133;-77
2022/01/01 12:33:38;;;;;;;15.82;6.45;;;13.50;99.90;;;;;;4964244;28;20138;-75
2022/01/01 12:36:16;;;;;;;15.18;8.10;;;13.50;99.90;;;;;;4964575;28;20043;-77
2022/01/01 12:39:09;;;;;;;15.02;5.60;;;13.70;99.90;;;;;;4968034;28;20461;-78
2022/01/01 12:41:44;;;;;;;12.60;5.65;;;13.90;99.90;;;;;;4948728;28;20043;-78
2022/01/01 12:44:31;;;;;;;8.55;5.45;;;14.00;99.90;;;;;;4966280;28;20083;-77
2022/01/01 12:46:59;;;;;;;12.15;6.00;;;14.10;99.90;;;;;;4980988;28;20423;-77